createdAt,value
2023-04-19T00:00:10.394Z,99.90
2023-04-19T00:02:38.504Z,99.90
2023-04-19T00:05:07.728Z,99.90
2023-04-19T00:07:36.339Z,99.90
2023-04-19T00:10:07.043Z,99.90
2023-04-19T00:12:35.147Z,99.90
2023-04-19T00:15:03.138Z,99.90
2023-04-19T00:17:31.176Z,99.90
2023-04-19T00:19:59.244Z,99.90
2023-04-19T00:22:27.698Z,99.90
2023-04-19T00:24:55.748Z,99.90
2023-04-19T00:27:25.230Z,99.90
2023-04-19T00:29:53.346Z,99.90
2023-04-19T00:32:21.467Z,99.90
2023-04-19T00:34:49.483Z,99.90
2023-04-19T00:37:26.782Z,99.90
2023-04-19T00:39:54.810Z,99.90
2023-04-19T00:42:24.173Z,99.90
2023-04-19T00:44:52.246Z,99.90
2023-04-19T00:47:20.556Z,99.90
2023-04-19T00:49:48.626Z,99.90
2023-04-19T00:52:16.773Z,99.90
2023-04-19T00:54:46.067Z,99.70
2023-04-19T00:57:14.228Z,99.60
2023-04-19T00:59:43.802Z,99.50
2023-04-19T01:02:11.868Z,99.20
2023-04-19T01:04:40.057Z,99.00
2023-04-19T01:07:08.372Z,99.10
2023-04-19T01:09:36.414Z,98.90
2023-04-19T01:12:04.482Z,98.80
2023-04-19T01:14:32.511Z,99.00
2023-04-19T01:17:01.888Z,98.90
2023-04-19T01:19:30.024Z,98.80
2023-04-19T01:21:58.348Z,99.00
2023-04-19T01:24:27.895Z,98.70
2023-04-19T01:26:56.341Z,98.70
2023-04-19T01:29:24.439Z,98.90
2023-04-19T01:31:53.804Z,99.00
2023-04-19T01:34:23.168Z,99.00
2023-04-19T01:36:51.384Z,99.60
2023-04-19T01:39:19.387Z,99.50
2023-04-19T01:41:48.778Z,99.40
2023-04-19T01:44:16.919Z,99.20
2023-04-19T01:46:45.144Z,99.40
2023-04-19T01:49:13.220Z,99.10
2023-04-19T01:51:41.194Z,99.20
2023-04-19T01:54:09.185Z,99.20
2023-04-19T01:56:37.141Z,99.10
2023-04-19T01:59:06.610Z,99.10
2023-04-19T02:01:34.620Z,99.10
2023-04-19T02:04:04.094Z,99.30
2023-04-19T02:06:32.433Z,99.20
2023-04-19T02:09:00.435Z,99.00
2023-04-19T02:11:28.508Z,99.30
2023-04-19T02:13:56.543Z,99.10
2023-04-19T02:16:26.060Z,99.00
2023-04-19T02:18:54.357Z,99.00
2023-04-19T02:21:22.438Z,99.00
2023-04-19T02:23:50.431Z,99.10
2023-04-19T02:26:18.438Z,99.40
2023-04-19T02:28:46.418Z,99.30
2023-04-19T02:31:14.394Z,99.20
2023-04-19T02:33:43.864Z,99.30
2023-04-19T02:36:12.164Z,99.40
2023-04-19T02:38:40.134Z,99.40
2023-04-19T02:41:08.100Z,99.40
2023-04-19T02:43:36.125Z,99.50
2023-04-19T02:46:04.286Z,99.50
2023-04-19T02:48:32.329Z,99.20
2023-04-19T02:51:01.905Z,99.20
2023-04-19T02:53:29.969Z,99.10
2023-04-19T02:55:57.989Z,98.80
2023-04-19T02:58:26.487Z,98.90
2023-04-19T03:00:54.513Z,98.80
2023-04-19T03:03:22.647Z,98.80
2023-04-19T03:05:50.899Z,99.00
2023-04-19T03:08:20.283Z,98.90
2023-04-19T03:10:48.225Z,99.10
2023-04-19T03:13:16.242Z,99.30
2023-04-19T03:15:44.315Z,99.50
2023-04-19T03:18:12.409Z,99.90
2023-04-19T03:20:40.406Z,99.90
2023-04-19T03:23:08.430Z,99.90
2023-04-19T03:25:37.860Z,99.90
2023-04-19T03:28:06.177Z,99.90
2023-04-19T03:30:34.216Z,99.90
2023-04-19T03:33:02.350Z,99.90
2023-04-19T03:35:32.227Z,99.90
2023-04-19T03:38:00.243Z,99.90
2023-04-19T03:40:28.283Z,98.40
2023-04-19T03:42:57.708Z,97.60
2023-04-19T03:45:25.777Z,97.60
2023-04-19T03:47:53.855Z,96.80
2023-04-19T03:50:21.895Z,96.40
2023-04-19T03:52:49.920Z,96.00
2023-04-19T03:55:18.024Z,95.90
2023-04-19T03:57:45.982Z,96.10
2023-04-19T04:00:16.664Z,96.50
2023-04-19T04:02:44.921Z,96.30
2023-04-19T04:05:13.253Z,96.20
2023-04-19T04:07:41.262Z,97.10
2023-04-19T04:10:10.234Z,97.10
2023-04-19T04:12:38.257Z,97.00
2023-04-19T04:17:41.710Z,97.20
2023-04-19T04:20:11.903Z,96.90
2023-04-19T04:22:42.550Z,96.80
2023-04-19T04:25:12.517Z,96.90
2023-04-19T04:27:40.536Z,96.60
2023-04-19T04:30:09.698Z,96.70
2023-04-19T04:32:38.284Z,96.40
2023-04-19T04:35:09.334Z,96.00
2023-04-19T04:37:37.812Z,95.50
2023-04-19T04:40:06.816Z,94.70
2023-04-19T04:42:35.684Z,94.90
2023-04-19T04:45:03.874Z,94.40
2023-04-19T04:47:35.782Z,94.60
2023-04-19T04:50:04.263Z,94.80
2023-04-19T04:52:33.641Z,94.40
2023-04-19T04:55:01.698Z,93.90
2023-04-19T04:57:29.765Z,93.90
2023-04-19T04:59:57.807Z,94.00
2023-04-19T05:02:26.461Z,94.00
2023-04-19T05:04:54.592Z,94.20
2023-04-19T05:07:22.627Z,94.10
2023-04-19T05:09:52.094Z,94.20
2023-04-19T05:12:20.086Z,94.30
2023-04-19T05:14:48.166Z,94.20
2023-04-19T05:17:16.234Z,94.00
2023-04-19T05:19:44.443Z,93.90
2023-04-19T05:22:12.535Z,94.20
2023-04-19T05:24:42.288Z,94.00
2023-04-19T05:27:12.329Z,93.90
2023-04-19T05:29:40.439Z,94.10
2023-04-19T05:32:08.745Z,94.30
2023-04-19T05:34:37.649Z,94.50
2023-04-19T05:37:06.621Z,94.40
2023-04-19T05:39:34.705Z,94.80
2023-04-19T05:42:02.969Z,95.00
2023-04-19T05:44:32.901Z,95.10
2023-04-19T05:47:01.256Z,94.70
2023-04-19T05:49:29.447Z,94.90
2023-04-19T05:51:57.563Z,94.30
2023-04-19T05:54:25.677Z,94.40
2023-04-19T05:56:53.714Z,94.20
2023-04-19T05:59:21.752Z,94.40
2023-04-19T06:01:51.258Z,94.20
2023-04-19T06:04:19.809Z,94.20
2023-04-19T06:06:48.143Z,94.00
2023-04-19T06:09:18.151Z,94.10
2023-04-19T06:11:50.719Z,93.80
2023-04-19T06:14:19.999Z,93.90
2023-04-19T06:16:48.288Z,94.00
2023-04-19T06:19:17.903Z,94.30
2023-04-19T06:21:46.046Z,94.20
2023-04-19T06:24:14.340Z,94.20
2023-04-19T06:26:43.301Z,93.50
2023-04-19T06:29:11.345Z,93.70
2023-04-19T06:31:46.335Z,93.40
2023-04-19T06:34:14.424Z,93.60
2023-04-19T06:36:43.848Z,93.10
2023-04-19T06:39:11.869Z,93.00
2023-04-19T06:41:40.044Z,92.90
2023-04-19T06:44:08.093Z,93.40
2023-04-19T06:46:36.131Z,93.20
2023-04-19T06:49:04.234Z,92.10
2023-04-19T06:51:32.394Z,92.40
2023-04-19T06:54:01.798Z,92.20
2023-04-19T06:56:45.649Z,92.00
2023-04-19T06:59:14.539Z,92.60
2023-04-19T07:01:42.651Z,92.20
2023-04-19T07:04:11.382Z,92.90
2023-04-19T07:06:40.358Z,91.30
2023-04-19T07:09:09.839Z,91.60
2023-04-19T07:11:38.078Z,92.10
2023-04-19T07:14:06.130Z,91.40
2023-04-19T07:16:34.354Z,91.20
2023-04-19T07:19:02.408Z,91.30
2023-04-19T07:21:33.330Z,91.40
2023-04-19T07:24:02.120Z,91.20
2023-04-19T07:26:32.031Z,91.10
2023-04-19T07:29:01.167Z,91.10
2023-04-19T07:31:29.562Z,91.50
2023-04-19T07:33:57.618Z,91.00
2023-04-19T07:36:25.648Z,91.90
2023-04-19T07:38:53.740Z,90.40
2023-04-19T07:41:22.158Z,88.50
2023-04-19T07:43:51.549Z,87.20
2023-04-19T07:46:19.595Z,89.00
2023-04-19T07:48:47.836Z,88.30
2023-04-19T07:51:17.570Z,87.20
2023-04-19T07:53:47.392Z,87.20
2023-04-19T07:56:15.669Z,88.50
2023-04-19T07:58:45.151Z,87.30
2023-04-19T08:01:16.411Z,84.50
2023-04-19T08:03:44.770Z,85.60
2023-04-19T08:06:14.298Z,86.60
2023-04-19T08:08:42.412Z,84.40
2023-04-19T08:11:10.623Z,84.40
2023-04-19T08:13:39.960Z,82.10
2023-04-19T08:18:41.172Z,78.60
2023-04-19T08:21:09.356Z,76.20
2023-04-19T08:23:47.336Z,75.30
2023-04-19T08:26:16.175Z,73.00
2023-04-19T08:28:44.308Z,71.50
2023-04-19T08:31:12.720Z,70.30
2023-04-19T08:33:42.259Z,69.30
2023-04-19T08:36:11.043Z,69.30
2023-04-19T08:38:39.531Z,69.40
2023-04-19T08:41:07.629Z,68.90
2023-04-19T08:44:03.441Z,71.40
2023-04-19T08:46:33.239Z,67.40
2023-04-19T08:49:03.619Z,63.40
2023-04-19T08:51:33.423Z,59.60
2023-04-19T08:54:05.359Z,56.60
2023-04-19T08:56:35.791Z,52.00
2023-04-19T08:59:18.055Z,53.00
2023-04-19T09:01:46.727Z,52.10
2023-04-19T09:04:35.704Z,52.60
2023-04-19T09:07:04.937Z,52.60
2023-04-19T09:09:40.718Z,51.70
2023-04-19T09:12:18.795Z,51.70
2023-04-19T09:15:00.663Z,49.70
2023-04-19T09:17:30.360Z,48.20
2023-04-19T09:20:00.304Z,47.10
2023-04-19T09:22:28.611Z,46.90
2023-04-19T09:27:30.100Z,46.60
2023-04-19T09:29:59.066Z,44.10
2023-04-19T09:32:28.268Z,43.90
2023-04-19T09:34:57.748Z,43.40
2023-04-19T09:37:51.455Z,44.10
2023-04-19T09:40:25.278Z,42.70
2023-04-19T09:45:30.405Z,39.90
2023-04-19T09:48:03.366Z,41.40
2023-04-19T09:50:32.743Z,43.20
2023-04-19T09:53:03.909Z,42.80
2023-04-19T09:55:39.254Z,43.00
2023-04-19T09:58:13.251Z,41.30
2023-04-19T10:00:49.059Z,39.00
2023-04-19T10:03:22.128Z,40.60
2023-04-19T10:05:51.410Z,39.20
2023-04-19T10:08:21.235Z,39.00
2023-04-19T10:10:54.887Z,35.20
2023-04-19T10:13:26.680Z,34.40
2023-04-19T10:16:01.794Z,33.10
2023-04-19T10:18:37.138Z,32.60
2023-04-19T10:21:09.483Z,33.80
2023-04-19T10:23:39.055Z,30.10
2023-04-19T10:26:07.371Z,31.20
2023-04-19T10:28:37.971Z,33.40
2023-04-19T10:31:06.654Z,33.20
2023-04-19T10:33:37.395Z,32.20
2023-04-19T10:36:09.585Z,32.30
2023-04-19T10:38:40.299Z,33.40
2023-04-19T10:41:17.008Z,31.20
2023-04-19T10:43:47.413Z,30.70
2023-04-19T10:46:18.011Z,29.60
2023-04-19T10:48:58.042Z,34.00
2023-04-19T10:51:28.972Z,32.70
2023-04-19T10:54:00.607Z,33.30
2023-04-19T10:57:11.849Z,32.30
2023-04-19T10:59:42.966Z,29.90
2023-04-19T11:02:29.467Z,32.00
2023-04-19T11:05:03.385Z,30.40
2023-04-19T11:07:39.756Z,30.40
2023-04-19T11:10:11.738Z,29.70
2023-04-19T11:12:43.893Z,29.20
2023-04-19T11:15:12.141Z,30.20
2023-04-19T11:17:41.755Z,33.10
2023-04-19T11:20:11.829Z,34.50
2023-04-19T11:22:41.523Z,35.00
2023-04-19T11:25:13.243Z,37.20
2023-04-19T11:27:42.945Z,37.60
2023-04-19T11:30:13.500Z,36.10
2023-04-19T11:32:48.365Z,39.60
2023-04-19T11:35:19.414Z,39.00
2023-04-19T11:37:47.476Z,39.40
2023-04-19T11:40:18.423Z,39.60
2023-04-19T11:42:47.085Z,41.30
2023-04-19T11:45:29.778Z,42.30
2023-04-19T11:47:59.666Z,39.80
2023-04-19T11:50:38.973Z,39.20
2023-04-19T11:53:15.511Z,40.80
2023-04-19T11:55:46.338Z,38.70
2023-04-19T11:58:32.659Z,40.40
2023-04-19T12:01:07.061Z,39.20
2023-04-19T12:03:36.001Z,40.40
2023-04-19T12:06:09.135Z,40.80
2023-04-19T12:08:38.087Z,39.80
2023-04-19T12:11:08.064Z,41.70
2023-04-19T12:13:36.618Z,42.40
2023-04-19T12:16:05.095Z,41.50
2023-04-19T12:18:50.428Z,41.10
2023-04-19T12:21:28.427Z,40.30
2023-04-19T12:23:57.985Z,43.30
2023-04-19T12:26:28.468Z,43.20
2023-04-19T12:28:56.733Z,41.70
2023-04-19T12:31:25.074Z,41.40
2023-04-19T12:33:53.254Z,40.60
2023-04-19T12:36:21.629Z,40.90
2023-04-19T12:38:49.675Z,40.50
2023-04-19T12:41:17.691Z,42.00
2023-04-19T12:43:47.048Z,40.90
2023-04-19T12:46:15.172Z,40.00
2023-04-19T12:48:43.256Z,39.50
2023-04-19T12:51:11.396Z,40.70
2023-04-19T12:53:39.402Z,39.70
2023-04-19T12:56:07.705Z,37.90
2023-04-19T12:58:35.778Z,40.80
2023-04-19T13:01:06.192Z,37.90
2023-04-19T13:03:36.701Z,38.20
2023-04-19T13:06:05.515Z,36.80
2023-04-19T13:08:43.411Z,34.80
2023-04-19T13:11:15.206Z,35.60
2023-04-19T13:13:43.334Z,36.90
2023-04-19T13:16:12.821Z,34.10
2023-04-19T13:18:40.995Z,35.30
2023-04-19T13:21:09.016Z,35.90
2023-04-19T13:23:37.113Z,36.30
2023-04-19T13:26:05.244Z,36.10
2023-04-19T13:28:35.671Z,34.00
2023-04-19T13:31:05.088Z,35.50
2023-04-19T13:33:34.760Z,37.30
2023-04-19T13:36:02.797Z,37.10
2023-04-19T13:38:30.867Z,39.70
2023-04-19T13:40:58.983Z,38.80
2023-04-19T13:43:27.218Z,37.50
2023-04-19T13:45:55.388Z,36.30
2023-04-19T13:48:23.412Z,33.20
2023-04-19T13:50:54.904Z,32.90
2023-04-19T13:53:23.063Z,33.00
2023-04-19T13:55:52.372Z,34.10
2023-04-19T13:58:20.708Z,31.60
2023-04-19T14:00:49.106Z,30.00
2023-04-19T14:03:17.628Z,29.70
2023-04-19T14:05:46.205Z,31.20
2023-04-19T14:08:15.620Z,32.10
2023-04-19T14:10:43.720Z,30.50
2023-04-19T14:13:11.753Z,31.10
2023-04-19T14:15:39.857Z,30.50
2023-04-19T14:18:08.119Z,28.80
2023-04-19T14:20:36.249Z,30.90
2023-04-19T14:23:04.630Z,31.40
2023-04-19T14:25:34.076Z,32.90
2023-04-19T14:28:02.204Z,32.30
2023-04-19T14:30:31.190Z,35.20
2023-04-19T14:32:59.507Z,35.80
2023-04-19T14:35:27.552Z,36.20
2023-04-19T14:37:55.561Z,36.30
2023-04-19T14:40:23.936Z,35.60
2023-04-19T14:42:53.491Z,36.20
2023-04-19T14:45:22.019Z,37.70
2023-04-19T14:47:50.096Z,38.20
2023-04-19T14:50:18.241Z,39.00
2023-04-19T14:52:46.352Z,39.30
2023-04-19T14:55:14.443Z,39.00
2023-04-19T14:57:42.554Z,36.50
2023-04-19T15:00:13.384Z,37.30
2023-04-19T15:02:41.504Z,38.90
2023-04-19T15:05:10.584Z,39.10
2023-04-19T15:07:39.752Z,40.90
2023-04-19T15:10:09.021Z,40.90
2023-04-19T15:12:37.132Z,41.30
2023-04-19T15:15:06.016Z,41.70
2023-04-19T15:17:35.745Z,42.30
2023-04-19T15:20:05.621Z,41.50
2023-04-19T15:22:34.380Z,41.70
2023-04-19T15:25:02.482Z,41.90
2023-04-19T15:27:31.280Z,41.50
2023-04-19T15:29:59.371Z,43.10
2023-04-19T15:32:29.069Z,42.30
2023-04-19T15:34:58.450Z,42.90
2023-04-19T15:37:27.374Z,42.80
2023-04-19T15:39:56.163Z,43.10
2023-04-19T15:42:24.246Z,43.70
2023-04-19T15:44:52.406Z,43.00
2023-04-19T15:47:20.506Z,44.60
2023-04-19T15:49:48.490Z,44.70
2023-04-19T15:52:18.850Z,44.60
2023-04-19T15:54:47.089Z,44.90
2023-04-19T15:57:17.508Z,45.00
2023-04-19T15:59:45.520Z,44.30
2023-04-19T16:02:13.689Z,44.40
2023-04-19T16:04:41.927Z,44.70
2023-04-19T16:07:10.067Z,46.10
2023-04-19T16:09:39.788Z,46.10
2023-04-19T16:12:08.038Z,46.70
2023-04-19T16:14:36.568Z,46.10
2023-04-19T16:17:04.700Z,46.10
2023-04-19T16:19:32.780Z,47.70
2023-04-19T16:22:02.549Z,48.70
2023-04-19T16:24:30.607Z,46.90
2023-04-19T16:27:00.065Z,48.20
2023-04-19T16:29:28.254Z,48.30
2023-04-19T16:31:56.394Z,46.70
2023-04-19T16:34:25.527Z,44.90
2023-04-19T16:36:54.248Z,43.90
2023-04-19T16:39:22.305Z,44.10
2023-04-19T16:41:50.525Z,42.90
2023-04-19T16:44:20.163Z,44.20
2023-04-19T16:46:48.149Z,44.50
2023-04-19T16:49:16.819Z,44.50
2023-04-19T16:51:46.222Z,45.60
2023-04-19T16:54:14.322Z,45.20
2023-04-19T16:56:42.454Z,46.30
2023-04-19T16:59:10.689Z,46.80
2023-04-19T17:01:40.168Z,46.80
2023-04-19T17:04:08.490Z,47.50
2023-04-19T17:06:36.768Z,49.20
2023-04-19T17:09:06.172Z,49.20
2023-04-19T17:11:34.529Z,48.50
2023-04-19T17:14:02.648Z,49.10
2023-04-19T17:16:30.810Z,48.70
2023-04-19T17:19:00.416Z,49.80
2023-04-19T17:21:28.670Z,49.10
2023-04-19T17:23:56.723Z,48.50
2023-04-19T17:26:24.794Z,50.00
2023-04-19T17:28:52.822Z,49.20
2023-04-19T17:31:20.975Z,49.80
2023-04-19T17:33:49.123Z,49.20
2023-04-19T17:36:19.217Z,49.20
2023-04-19T17:38:47.320Z,49.50
2023-04-19T17:41:17.015Z,49.80
2023-04-19T17:43:45.615Z,50.20
2023-04-19T17:46:14.166Z,51.30
2023-04-19T17:48:42.454Z,52.00
2023-04-19T17:51:10.556Z,51.70
2023-04-19T17:53:40.070Z,53.30
2023-04-19T17:56:08.232Z,52.60
2023-04-19T17:58:36.495Z,52.90
2023-04-19T18:01:06.673Z,53.50
2023-04-19T18:03:35.058Z,53.50
2023-04-19T18:06:03.548Z,53.40
2023-04-19T18:08:31.784Z,53.00
2023-04-19T18:11:01.274Z,53.00
2023-04-19T18:13:29.850Z,53.50
2023-04-19T18:15:58.307Z,54.70
2023-04-19T18:18:26.515Z,55.30
2023-04-19T18:20:54.630Z,55.60
2023-04-19T18:23:22.832Z,54.50
2023-04-19T18:25:55.148Z,54.80
2023-04-19T18:28:24.951Z,53.90
2023-04-19T18:30:53.276Z,55.20
2023-04-19T18:33:21.411Z,56.80
2023-04-19T18:35:49.733Z,57.00
2023-04-19T18:38:17.883Z,57.10
2023-04-19T18:40:46.136Z,57.40
2023-04-19T18:43:14.394Z,57.60
2023-04-19T18:45:44.127Z,58.00
2023-04-19T18:48:12.639Z,58.10
2023-04-19T18:50:40.975Z,58.40
2023-04-19T18:53:09.038Z,59.60
2023-04-19T18:55:37.604Z,59.80
2023-04-19T18:58:06.137Z,60.10
2023-04-19T19:00:34.402Z,60.50
2023-04-19T19:03:04.224Z,59.90
2023-04-19T19:05:32.699Z,60.10
2023-04-19T19:08:01.394Z,60.60
2023-04-19T19:13:01.202Z,61.30
2023-04-19T19:15:29.952Z,61.70
2023-04-19T19:17:58.420Z,61.30
2023-04-19T19:20:28.140Z,61.50
2023-04-19T19:22:56.514Z,61.30
2023-04-19T19:25:24.693Z,62.00
2023-04-19T19:30:25.673Z,64.00
2023-04-19T19:32:53.926Z,63.10
2023-04-19T19:35:24.751Z,63.00
2023-04-19T19:37:54.683Z,63.50
2023-04-19T19:40:23.156Z,63.10
2023-04-19T19:42:51.337Z,63.60
2023-04-19T19:45:19.783Z,63.30
2023-04-19T19:47:49.931Z,63.70
2023-04-19T19:52:51.517Z,64.10
2023-04-19T19:55:21.075Z,62.60
2023-04-19T19:58:21.028Z,61.50
2023-04-19T20:00:46.007Z,61.50
2023-04-19T20:03:28.522Z,61.90
2023-04-19T20:06:35.261Z,62.80
2023-04-19T20:08:53.157Z,62.40
2023-04-19T20:11:22.822Z,63.50
2023-04-19T20:13:51.026Z,60.70
2023-04-19T20:16:19.712Z,57.70
2023-04-19T20:18:51.361Z,56.90
2023-04-19T20:21:20.423Z,56.80
2023-04-19T20:23:48.613Z,57.30
2023-04-19T20:26:16.743Z,57.90
2023-04-19T20:28:48.753Z,59.00
2023-04-19T20:31:16.992Z,58.40
2023-04-19T20:33:46.885Z,57.30
2023-04-19T20:36:17.427Z,56.20
2023-04-19T20:38:45.796Z,56.90
2023-04-19T20:41:14.082Z,56.80
2023-04-19T20:43:42.368Z,57.00
2023-04-19T20:46:12.364Z,56.70
2023-04-19T20:48:41.350Z,56.00
2023-04-19T20:51:09.660Z,56.30
2023-04-19T20:53:38.020Z,55.40
2023-04-19T20:56:06.240Z,56.20
2023-04-19T20:58:34.657Z,56.10
2023-04-19T21:01:02.870Z,56.80
2023-04-19T21:03:32.722Z,57.00
2023-04-19T21:06:01.437Z,56.50
2023-04-19T21:08:29.758Z,56.50
2023-04-19T21:10:57.894Z,57.20
2023-04-19T21:13:26.263Z,56.50
2023-04-19T21:15:54.497Z,56.80
2023-04-19T21:18:23.095Z,56.70
2023-04-19T21:20:52.584Z,57.60
2023-04-19T21:23:20.730Z,56.70
2023-04-19T21:25:48.925Z,57.70
2023-04-19T21:28:17.112Z,57.80
2023-04-19T21:30:45.271Z,58.30
2023-04-19T21:33:13.533Z,58.30
2023-04-19T21:35:41.836Z,59.30
2023-04-19T21:38:11.344Z,59.40
2023-04-19T21:40:39.512Z,59.30
2023-04-19T21:43:07.694Z,58.10
2023-04-19T21:45:35.885Z,59.10
2023-04-19T21:48:04.012Z,59.40
2023-04-19T21:50:32.171Z,58.10
2023-04-19T21:53:00.307Z,59.20
2023-04-19T21:55:30.144Z,60.00
2023-04-19T21:57:58.387Z,62.80
2023-04-19T22:00:26.816Z,63.70
2023-04-19T22:02:55.041Z,65.40
2023-04-19T22:05:23.259Z,68.70
2023-04-19T22:07:51.368Z,71.30
2023-04-19T22:10:19.561Z,74.50
2023-04-19T22:12:57.649Z,76.20
2023-04-19T22:15:26.608Z,78.20
2023-04-19T22:17:54.914Z,79.40
2023-04-19T22:20:24.014Z,80.90
2023-04-19T22:23:03.632Z,80.90
2023-04-19T22:25:31.782Z,81.60
2023-04-19T22:28:01.270Z,82.00
2023-04-19T22:30:29.466Z,82.20
2023-04-19T22:32:57.743Z,83.60
2023-04-19T22:35:26.040Z,84.30
2023-04-19T22:37:54.099Z,84.60
2023-04-19T22:40:22.187Z,84.80
2023-04-19T22:42:50.345Z,83.90
2023-04-19T22:45:20.075Z,84.40
2023-04-19T22:47:48.328Z,84.90
2023-04-19T22:50:16.602Z,85.20
2023-04-19T22:52:45.648Z,85.90
2023-04-19T22:55:13.842Z,85.70
2023-04-19T22:57:43.072Z,85.00
2023-04-19T23:00:11.875Z,85.90
2023-04-19T23:02:41.583Z,86.90
2023-04-19T23:05:10.615Z,87.00
2023-04-19T23:07:40.074Z,87.40
2023-04-19T23:10:10.260Z,88.00
2023-04-19T23:12:38.798Z,89.00
2023-04-19T23:15:08.508Z,88.00
2023-04-19T23:17:39.344Z,88.00
2023-04-19T23:20:11.197Z,87.50
2023-04-19T23:22:39.606Z,88.60
2023-04-19T23:25:08.934Z,88.30
2023-04-19T23:27:37.311Z,88.30
2023-04-19T23:30:07.965Z,88.20
2023-04-19T23:32:36.124Z,88.40
2023-04-19T23:35:04.393Z,88.40
2023-04-19T23:37:33.886Z,88.80
2023-04-19T23:40:01.956Z,88.60
2023-04-19T23:42:30.031Z,89.00
2023-04-19T23:44:58.228Z,88.30
2023-04-19T23:47:26.490Z,88.00
2023-04-19T23:49:54.605Z,88.20
2023-04-19T23:52:23.138Z,89.10
2023-04-19T23:54:52.685Z,88.90
2023-04-19T23:57:21.131Z,89.00
2023-04-19T23:59:49.302Z,88.80
